VLG7575 GBYD-LEBL
Flight info
| Callsign | VLG7575 |
|---|---|
| Flight time | N/A |
| Altitude | 33000 |
| Route | ANITI UB601 KETAS DCT ZRT UR975 ECHED DCT BERUM DCT GONZA N860 VLC L34 CASIM DCT MATEX |
| Aircraft | A321/M-SDE3FGHIRWY/LB1 |
Departure
| Time | 2026-04-26 15:41 |
|---|---|
| Airport | Banjul International Airport (GBYD) |
Arrival
| Time | N/A |
|---|---|
| Airport | Josep Tarradellas Barcelona-El Prat Airport (LEBL) |
| Time | Latitude | Longitude | Altitude | Speed | Heading |
|---|---|---|---|---|---|
| 2026-04-26 15:07 | 13.34306 | -16.65336 | 91 ft | 0 kts | 131° |
| 2026-04-26 15:34 | 13.34295 | -16.65323 | 91 ft | 6 kts | 131° |
| 2026-04-26 15:34 | 13.34253 | -16.65319 | 93 ft | 9 kts | 208° |
| 2026-04-26 15:35 | 13.34198 | -16.65365 | 91 ft | 10 kts | 219° |
| 2026-04-26 15:35 | 13.34130 | -16.65364 | 92 ft | 14 kts | 139° |
| 2026-04-26 15:35 | 13.34064 | -16.65285 | 92 ft | 15 kts | 132° |
| 2026-04-26 15:35 | 13.34017 | -16.65231 | 93 ft | 16 kts | 131° |
| 2026-04-26 15:36 | 13.33922 | -16.65210 | 92 ft | 17 kts | 216° |
| 2026-04-26 15:36 | 13.33803 | -16.65246 | 93 ft | 15 kts | 131° |
| 2026-04-26 15:36 | 13.33752 | -16.65184 | 90 ft | 18 kts | 129° |
| 2026-04-26 15:36 | 13.33663 | -16.65079 | 89 ft | 23 kts | 132° |
| 2026-04-26 15:37 | 13.33546 | -16.64939 | 92 ft | 26 kts | 130° |
| 2026-04-26 15:37 | 13.33428 | -16.64800 | 88 ft | 26 kts | 130° |
| 2026-04-26 15:37 | 13.33314 | -16.64664 | 93 ft | 25 kts | 131° |
| 2026-04-26 15:37 | 13.33166 | -16.64488 | 91 ft | 24 kts | 130° |
| 2026-04-26 15:38 | 13.33092 | -16.64400 | 91 ft | 24 kts | 131° |
| 2026-04-26 15:38 | 13.32983 | -16.64269 | 90 ft | 24 kts | 130° |
| 2026-04-26 15:38 | 13.32878 | -16.64112 | 90 ft | 27 kts | 98° |
| 2026-04-26 15:38 | 13.32869 | -16.63958 | 90 ft | 12 kts | 137° |
| 2026-04-26 15:39 | 13.32830 | -16.63945 | 91 ft | 0 kts | 174° |
| 2026-04-26 15:39 | 13.32829 | -16.63945 | 91 ft | 0 kts | 174° |
| 2026-04-26 15:39 | 13.32809 | -16.63944 | 90 ft | 8 kts | 176° |
| 2026-04-26 15:39 | 13.32764 | -16.63942 | 90 ft | 10 kts | 185° |
| 2026-04-26 15:40 | 13.32742 | -16.63987 | 91 ft | 1 kts | 321° |
| 2026-04-26 15:40 | 13.32747 | -16.63993 | 89 ft | 0 kts | 314° |
| 2026-04-26 15:40 | 13.32753 | -16.63999 | 89 ft | 12 kts | 313° |
| 2026-04-26 15:40 | 13.32969 | -16.64253 | 90 ft | 80 kts | 310° |
| 2026-04-26 15:41 | 13.33461 | -16.64840 | 91 ft | 135 kts | 311° |
| 2026-04-26 15:41 | 13.34177 | -16.65691 | 112 ft | 176 kts | 309° |
| 2026-04-26 15:41 | 13.34977 | -16.66649 | 664 ft | 176 kts | 309° |
| 2026-04-26 15:41 | 13.35771 | -16.67605 | 1262 ft | 177 kts | 310° |
| 2026-04-26 15:42 | 13.36609 | -16.68602 | 1449 ft | 194 kts | 312° |
| 2026-04-26 15:42 | 13.37542 | -16.69707 | 1590 ft | 216 kts | 312° |
| 2026-04-26 15:42 | 13.38720 | -16.70774 | 1701 ft | 238 kts | 328° |
| 2026-04-26 15:42 | 13.40198 | -16.71660 | 2010 ft | 253 kts | 333° |
| 2026-04-26 15:43 | 13.41761 | -16.72479 | 2592 ft | 256 kts | 335° |
| 2026-04-26 15:43 | 13.43364 | -16.73305 | 3146 ft | 260 kts | 334° |
| 2026-04-26 15:43 | 13.46619 | -16.75029 | 4303 ft | 265 kts | 333° |
| 2026-04-26 15:44 | 13.48255 | -16.75926 | 4824 ft | 269 kts | 332° |
| 2026-04-26 15:44 | 13.51586 | -16.77788 | 5845 ft | 276 kts | 331° |
| 2026-04-26 15:44 | 13.53277 | -16.78740 | 6402 ft | 278 kts | 331° |
| 2026-04-26 15:45 | 13.56705 | -16.80673 | 7393 ft | 284 kts | 331° |
| 2026-04-26 15:45 | 13.58571 | -16.81371 | 7853 ft | 290 kts | 352° |
| 2026-04-26 15:46 | 13.62625 | -16.80919 | 8798 ft | 299 kts | 9° |
| 2026-04-26 15:46 | 13.64688 | -16.80527 | 9269 ft | 303 kts | 9° |
| 2026-04-26 15:46 | 13.66772 | -16.80129 | 9778 ft | 306 kts | 9° |
| 2026-04-26 15:46 | 13.68173 | -16.79862 | 10050 ft | 311 kts | 9° |
| 2026-04-26 15:47 | 13.71125 | -16.79302 | 10215 ft | 334 kts | 9° |
| 2026-04-26 15:47 | 13.75922 | -16.78390 | 10462 ft | 366 kts | 9° |
| 2026-04-26 15:47 | 13.78454 | -16.77910 | 10796 ft | 373 kts | 9° |
| 2026-04-26 15:48 | 13.81013 | -16.77424 | 11257 ft | 376 kts | 9° |
| 2026-04-26 15:48 | 13.83559 | -16.76941 | 11724 ft | 378 kts | 9° |
| 2026-04-26 15:48 | 13.86155 | -16.76450 | 12201 ft | 381 kts | 9° |
| 2026-04-26 15:48 | 13.88769 | -16.75955 | 12698 ft | 383 kts | 9° |
| 2026-04-26 15:49 | 13.91400 | -16.75461 | 13170 ft | 386 kts | 9° |
| 2026-04-26 15:49 | 13.94054 | -16.74961 | 13667 ft | 389 kts | 9° |
| 2026-04-26 15:49 | 13.96729 | -16.74456 | 14108 ft | 392 kts | 9° |
| 2026-04-26 15:49 | 13.99415 | -16.73949 | 14564 ft | 393 kts | 9° |
| 2026-04-26 15:50 | 14.02114 | -16.73439 | 15038 ft | 395 kts | 8° |
| 2026-04-26 15:50 | 14.04823 | -16.72926 | 15494 ft | 397 kts | 8° |
| 2026-04-26 15:50 | 14.07549 | -16.72407 | 15953 ft | 399 kts | 8° |
| 2026-04-26 15:50 | 14.10287 | -16.71887 | 16404 ft | 400 kts | 8° |
| 2026-04-26 15:51 | 14.13036 | -16.71367 | 16850 ft | 402 kts | 8° |
| 2026-04-26 15:51 | 14.15791 | -16.70847 | 17289 ft | 404 kts | 8° |
| 2026-04-26 15:51 | 14.18562 | -16.70323 | 17728 ft | 406 kts | 8° |
| 2026-04-26 15:51 | 14.21346 | -16.69795 | 18143 ft | 407 kts | 8° |
| 2026-04-26 15:52 | 14.24138 | -16.69264 | 18499 ft | 409 kts | 8° |
| 2026-04-26 15:52 | 14.26950 | -16.68731 | 18851 ft | 412 kts | 7° |
| 2026-04-26 15:52 | 14.29778 | -16.68194 | 19193 ft | 414 kts | 7° |
| 2026-04-26 15:52 | 14.31402 | -16.67886 | 19393 ft | 415 kts | 7° |
| 2026-04-26 15:53 | 14.35218 | -16.67162 | 19858 ft | 419 kts | 7° |
| 2026-04-26 15:53 | 14.38093 | -16.66619 | 20193 ft | 421 kts | 7° |
| 2026-04-26 15:53 | 14.40983 | -16.66071 | 20514 ft | 424 kts | 7° |
| 2026-04-26 15:53 | 14.43897 | -16.65515 | 20827 ft | 426 kts | 7° |
| 2026-04-26 15:54 | 14.46822 | -16.64957 | 21135 ft | 428 kts | 7° |
| 2026-04-26 15:54 | 14.49731 | -16.64401 | 21425 ft | 431 kts | 7° |
| 2026-04-26 15:54 | 14.52688 | -16.63837 | 21720 ft | 433 kts | 7° |
| 2026-04-26 15:54 | 14.55658 | -16.63272 | 22008 ft | 435 kts | 7° |
| 2026-04-26 15:55 | 14.58643 | -16.62704 | 22284 ft | 437 kts | 7° |
| 2026-04-26 15:55 | 14.61647 | -16.62133 | 22561 ft | 439 kts | 7° |
| 2026-04-26 15:55 | 14.64659 | -16.61561 | 22833 ft | 441 kts | 7° |
| 2026-04-26 15:55 | 14.67684 | -16.60986 | 23104 ft | 443 kts | 7° |
| 2026-04-26 15:56 | 14.70730 | -16.60407 | 23354 ft | 446 kts | 7° |
| 2026-04-26 15:56 | 14.73793 | -16.59825 | 23583 ft | 448 kts | 6° |
| 2026-04-26 15:56 | 14.76867 | -16.59240 | 23822 ft | 450 kts | 6° |
| 2026-04-26 15:56 | 14.79944 | -16.58653 | 24072 ft | 450 kts | 6° |
| 2026-04-26 15:57 | 14.83031 | -16.58060 | 24322 ft | 451 kts | 6° |
| 2026-04-26 15:57 | 14.86116 | -16.57470 | 24579 ft | 452 kts | 6° |
| 2026-04-26 15:57 | 14.89213 | -16.56880 | 24832 ft | 453 kts | 6° |
| 2026-04-26 15:57 | 14.91248 | -16.56491 | 24997 ft | 453 kts | 6° |
| 2026-04-26 15:58 | 14.95126 | -16.55753 | 25313 ft | 454 kts | 6° |
| 2026-04-26 15:58 | 14.98232 | -16.55161 | 25551 ft | 455 kts | 6° |
| 2026-04-26 15:58 | 15.01350 | -16.54563 | 25797 ft | 456 kts | 6° |
| 2026-04-26 15:58 | 15.04470 | -16.53967 | 26049 ft | 456 kts | 6° |
| 2026-04-26 15:59 | 15.07597 | -16.53371 | 26282 ft | 457 kts | 5° |
| 2026-04-26 15:59 | 15.10731 | -16.52776 | 26515 ft | 458 kts | 5° |
| 2026-04-26 15:59 | 15.13871 | -16.52177 | 26756 ft | 459 kts | 5° |
| 2026-04-26 15:59 | 15.17013 | -16.51578 | 26988 ft | 460 kts | 5° |
| 2026-04-26 16:00 | 15.20159 | -16.50976 | 27214 ft | 460 kts | 5° |
| 2026-04-26 16:00 | 15.23314 | -16.50372 | 27438 ft | 461 kts | 5° |
| 2026-04-26 16:00 | 15.26471 | -16.49767 | 27657 ft | 462 kts | 5° |
| 2026-04-26 16:00 | 15.29632 | -16.49160 | 27881 ft | 463 kts | 5° |
| 2026-04-26 16:01 | 15.32798 | -16.48550 | 28100 ft | 463 kts | 5° |
| 2026-04-26 16:01 | 15.35975 | -16.47938 | 28321 ft | 464 kts | 5° |
| 2026-04-26 16:01 | 15.39153 | -16.47329 | 28546 ft | 465 kts | 4° |
| 2026-04-26 16:01 | 15.42342 | -16.46718 | 28749 ft | 466 kts | 4° |
| 2026-04-26 16:02 | 15.45539 | -16.46104 | 28969 ft | 467 kts | 4° |
| 2026-04-26 16:02 | 15.48735 | -16.45493 | 29194 ft | 468 kts | 4° |
| 2026-04-26 16:02 | 15.51934 | -16.44884 | 29516 ft | 466 kts | 4° |
| 2026-04-26 16:02 | 15.54039 | -16.44481 | 29730 ft | 465 kts | 4° |
| 2026-04-26 16:03 | 15.58282 | -16.43668 | 30134 ft | 462 kts | 4° |
| 2026-04-26 16:03 | 15.61444 | -16.43063 | 30369 ft | 462 kts | 4° |
| 2026-04-26 16:03 | 15.64605 | -16.42454 | 30572 ft | 462 kts | 4° |
| 2026-04-26 16:03 | 15.67766 | -16.41842 | 30765 ft | 462 kts | 4° |
| 2026-04-26 16:04 | 15.70931 | -16.41228 | 30960 ft | 463 kts | 4° |
| 2026-04-26 16:04 | 15.74061 | -16.40625 | 31147 ft | 464 kts | 3° |
| 2026-04-26 16:04 | 15.77241 | -16.40015 | 31306 ft | 465 kts | 3° |
| 2026-04-26 16:04 | 15.80420 | -16.39403 | 31485 ft | 466 kts | 4° |
| 2026-04-26 16:05 | 15.83610 | -16.38785 | 31669 ft | 466 kts | 4° |
| 2026-04-26 16:05 | 15.86798 | -16.38165 | 31863 ft | 466 kts | 4° |
| 2026-04-26 16:05 | 15.89988 | -16.37543 | 32050 ft | 467 kts | 4° |
| 2026-04-26 16:05 | 15.93181 | -16.36924 | 32239 ft | 467 kts | 4° |
| 2026-04-26 16:06 | 15.96376 | -16.36308 | 32416 ft | 467 kts | 3° |
| 2026-04-26 16:06 | 15.99573 | -16.35694 | 32604 ft | 468 kts | 3° |
| 2026-04-26 16:06 | 16.02774 | -16.35077 | 32789 ft | 468 kts | 3° |
| 2026-04-26 16:06 | 16.05987 | -16.34458 | 32902 ft | 468 kts | 4° |
| 2026-04-26 16:07 | 16.09188 | -16.33840 | 32895 ft | 468 kts | 3° |
| 2026-04-26 16:07 | 16.15596 | -16.32602 | 32901 ft | 468 kts | 3° |
| 2026-04-26 16:08 | 16.21892 | -16.30862 | 32910 ft | 483 kts | 18° |
| 2026-04-26 16:08 | 16.27974 | -16.27838 | 32901 ft | 485 kts | 19° |
| 2026-04-26 16:09 | 16.34055 | -16.24773 | 32901 ft | 485 kts | 19° |
| 2026-04-26 16:09 | 16.40133 | -16.21717 | 32908 ft | 485 kts | 19° |
| 2026-04-26 16:10 | 16.46223 | -16.18670 | 32889 ft | 486 kts | 18° |
| 2026-04-26 16:10 | 16.52327 | -16.15609 | 32887 ft | 487 kts | 18° |
| 2026-04-26 16:11 | 16.58404 | -16.12556 | 32893 ft | 488 kts | 18° |
| 2026-04-26 16:11 | 16.64527 | -16.09480 | 32899 ft | 489 kts | 18° |
| 2026-04-26 16:12 | 16.70652 | -16.06401 | 32894 ft | 489 kts | 18° |
| 2026-04-26 16:12 | 16.79842 | -16.01765 | 32908 ft | 489 kts | 18° |
| 2026-04-26 16:13 | 16.85981 | -15.98671 | 32903 ft | 490 kts | 18° |
| 2026-04-26 16:13 | 16.92131 | -15.95578 | 32895 ft | 491 kts | 18° |
| 2026-04-26 16:14 | 16.98291 | -15.92493 | 32882 ft | 491 kts | 18° |
| 2026-04-26 16:15 | 17.07545 | -15.87852 | 32883 ft | 492 kts | 18° |
| 2026-04-26 16:15 | 17.13716 | -15.84731 | 32903 ft | 493 kts | 18° |
| 2026-04-26 16:16 | 17.22975 | -15.80037 | 32890 ft | 493 kts | 18° |
| 2026-04-26 16:16 | 17.29156 | -15.76900 | 32873 ft | 493 kts | 18° |
| 2026-04-26 16:17 | 17.35292 | -15.73794 | 32873 ft | 494 kts | 18° |
| 2026-04-26 16:17 | 17.41475 | -15.70659 | 32873 ft | 494 kts | 18° |
| 2026-04-26 16:18 | 17.50751 | -15.65950 | 32873 ft | 494 kts | 18° |
| 2026-04-26 16:19 | 17.60033 | -15.61243 | 32858 ft | 494 kts | 18° |
| 2026-04-26 16:20 | 17.69319 | -15.56522 | 32855 ft | 495 kts | 18° |
| 2026-04-26 16:20 | 17.78616 | -15.51787 | 32856 ft | 495 kts | 18° |
| 2026-04-26 16:21 | 17.84811 | -15.48628 | 32845 ft | 495 kts | 18° |
| 2026-04-26 16:21 | 17.90970 | -15.45487 | 32840 ft | 495 kts | 18° |
| 2026-04-26 16:22 | 17.97183 | -15.42334 | 32837 ft | 496 kts | 18° |
| 2026-04-26 16:22 | 18.03402 | -15.39186 | 32838 ft | 496 kts | 18° |
| 2026-04-26 16:23 | 18.09615 | -15.36022 | 32841 ft | 496 kts | 18° |
| 2026-04-26 16:23 | 18.15829 | -15.32852 | 32861 ft | 496 kts | 18° |
| 2026-04-26 16:24 | 18.22039 | -15.29688 | 32822 ft | 496 kts | 18° |
| 2026-04-26 16:24 | 18.28219 | -15.26539 | 32823 ft | 496 kts | 18° |
| 2026-04-26 16:25 | 18.34433 | -15.23364 | 32826 ft | 497 kts | 18° |
| 2026-04-26 16:25 | 18.40653 | -15.20189 | 32829 ft | 497 kts | 18° |
| 2026-04-26 16:26 | 18.45824 | -15.17552 | 32826 ft | 497 kts | 18° |
| 2026-04-26 16:26 | 18.52043 | -15.14375 | 32832 ft | 497 kts | 17° |
| 2026-04-26 16:27 | 18.58247 | -15.11204 | 32809 ft | 495 kts | 17° |
| 2026-04-26 16:27 | 18.64451 | -15.08026 | 32814 ft | 496 kts | 17° |
| 2026-04-26 16:28 | 18.70660 | -15.04828 | 32822 ft | 496 kts | 17° |
| 2026-04-26 16:28 | 18.76831 | -15.01655 | 32829 ft | 496 kts | 17° |
| 2026-04-26 16:29 | 18.83038 | -14.98472 | 32828 ft | 496 kts | 17° |
| 2026-04-26 16:29 | 18.89241 | -14.95288 | 32821 ft | 494 kts | 17° |
| 2026-04-26 16:30 | 18.95428 | -14.92111 | 32816 ft | 494 kts | 17° |
| 2026-04-26 16:30 | 19.01615 | -14.88927 | 32811 ft | 495 kts | 17° |
| 2026-04-26 16:31 | 19.07817 | -14.85737 | 32817 ft | 496 kts | 17° |
| 2026-04-26 16:31 | 19.14023 | -14.82530 | 32822 ft | 497 kts | 17° |
| 2026-04-26 16:32 | 19.20224 | -14.79304 | 32868 ft | 497 kts | 17° |
| 2026-04-26 16:32 | 19.26411 | -14.76088 | 32806 ft | 494 kts | 17° |
| 2026-04-26 16:33 | 19.32605 | -14.72896 | 32816 ft | 495 kts | 17° |
| 2026-04-26 16:33 | 19.38799 | -14.69713 | 32822 ft | 495 kts | 17° |
| 2026-04-26 16:34 | 19.45008 | -14.66503 | 32826 ft | 496 kts | 17° |
| 2026-04-26 16:34 | 19.51168 | -14.63295 | 32831 ft | 496 kts | 17° |
| 2026-04-26 16:35 | 19.57362 | -14.60070 | 32831 ft | 495 kts | 17° |
| 2026-04-26 16:35 | 19.63557 | -14.56856 | 32838 ft | 496 kts | 17° |
| 2026-04-26 16:36 | 19.69761 | -14.53637 | 32833 ft | 496 kts | 17° |
| 2026-04-26 16:36 | 19.75975 | -14.50413 | 32837 ft | 497 kts | 17° |
| 2026-04-26 16:37 | 19.82203 | -14.47175 | 32840 ft | 498 kts | 17° |
| 2026-04-26 16:37 | 19.88385 | -14.43947 | 32883 ft | 498 kts | 17° |
| 2026-04-26 16:38 | 19.94614 | -14.40692 | 32873 ft | 498 kts | 17° |
| 2026-04-26 16:38 | 20.00841 | -14.37451 | 32860 ft | 498 kts | 17° |
| 2026-04-26 16:39 | 20.07068 | -14.34202 | 32857 ft | 498 kts | 17° |
| 2026-04-26 16:39 | 20.13292 | -14.30951 | 32856 ft | 498 kts | 17° |
| 2026-04-26 16:40 | 20.19517 | -14.27692 | 32859 ft | 498 kts | 17° |
| 2026-04-26 16:40 | 20.25735 | -14.24430 | 32844 ft | 498 kts | 17° |
| 2026-04-26 16:41 | 20.31950 | -14.21170 | 32845 ft | 498 kts | 17° |
| 2026-04-26 16:41 | 20.38169 | -14.17906 | 32839 ft | 499 kts | 18° |
| 2026-04-26 16:42 | 20.44407 | -14.14633 | 32846 ft | 500 kts | 17° |
| 2026-04-26 16:42 | 20.50652 | -14.11357 | 32848 ft | 500 kts | 18° |
| 2026-04-26 16:43 | 20.56899 | -14.08064 | 32893 ft | 501 kts | 18° |
| 2026-04-26 16:43 | 20.63117 | -14.04789 | 32862 ft | 501 kts | 18° |
| 2026-04-26 16:44 | 20.69370 | -14.01493 | 32858 ft | 501 kts | 18° |
| 2026-04-26 16:44 | 20.75623 | -13.98191 | 32860 ft | 501 kts | 18° |
| 2026-04-26 16:45 | 20.81884 | -13.94893 | 32860 ft | 502 kts | 18° |
| 2026-04-26 16:45 | 20.88141 | -13.91584 | 32866 ft | 502 kts | 18° |
| 2026-04-26 16:46 | 20.94407 | -13.88266 | 32867 ft | 502 kts | 18° |
| 2026-04-26 16:46 | 21.00664 | -13.84957 | 32865 ft | 502 kts | 18° |
| 2026-04-26 16:47 | 21.06933 | -13.81636 | 32858 ft | 502 kts | 18° |
| 2026-04-26 16:47 | 21.13167 | -13.78321 | 32857 ft | 503 kts | 18° |
| 2026-04-26 16:48 | 21.19433 | -13.74992 | 32858 ft | 503 kts | 18° |
| 2026-04-26 16:48 | 21.25714 | -13.71654 | 32862 ft | 504 kts | 18° |
| 2026-04-26 16:49 | 21.31975 | -13.68322 | 32842 ft | 502 kts | 18° |
| 2026-04-26 16:49 | 21.38236 | -13.64986 | 32847 ft | 503 kts | 18° |
| 2026-04-26 16:50 | 21.44505 | -13.61647 | 32852 ft | 503 kts | 18° |
| 2026-04-26 16:50 | 21.50780 | -13.58298 | 32859 ft | 503 kts | 18° |
| 2026-04-26 16:51 | 21.57057 | -13.54947 | 32862 ft | 503 kts | 18° |
| 2026-04-26 16:51 | 21.63332 | -13.51592 | 32854 ft | 503 kts | 19° |
| 2026-04-26 16:52 | 21.68545 | -13.48802 | 32851 ft | 503 kts | 19° |
| 2026-04-26 16:52 | 21.75848 | -13.44898 | 32853 ft | 505 kts | 19° |
| 2026-04-26 16:53 | 21.82138 | -13.41526 | 32865 ft | 506 kts | 19° |
| 2026-04-26 16:53 | 21.88433 | -13.38142 | 32878 ft | 506 kts | 19° |
| 2026-04-26 16:54 | 21.94739 | -13.34756 | 32892 ft | 506 kts | 20° |
| 2026-04-26 16:54 | 22.01047 | -13.31361 | 32886 ft | 506 kts | 20° |
| 2026-04-26 16:55 | 22.07359 | -13.27967 | 32889 ft | 506 kts | 20° |
| 2026-04-26 16:55 | 22.13668 | -13.24574 | 32887 ft | 506 kts | 20° |
| 2026-04-26 16:56 | 22.23126 | -13.19465 | 32886 ft | 506 kts | 20° |
| 2026-04-26 16:57 | 22.29424 | -13.16059 | 32909 ft | 506 kts | 20° |
| 2026-04-26 16:57 | 22.38816 | -13.10968 | 32885 ft | 505 kts | 20° |
| 2026-04-26 16:58 | 22.44058 | -13.08133 | 32884 ft | 506 kts | 20° |
| 2026-04-26 16:59 | 22.54573 | -13.02447 | 32886 ft | 506 kts | 20° |
| 2026-04-26 17:00 | 22.67162 | -12.95595 | 32904 ft | 506 kts | 21° |
| 2026-04-26 17:00 | 22.76598 | -12.90462 | 32905 ft | 505 kts | 21° |
| 2026-04-26 17:01 | 22.82840 | -12.87063 | 32903 ft | 505 kts | 21° |
| 2026-04-26 17:01 | 22.89113 | -12.83634 | 32903 ft | 505 kts | 21° |
| 2026-04-26 17:02 | 22.95377 | -12.80209 | 32897 ft | 502 kts | 22° |
| 2026-04-26 17:02 | 23.01625 | -12.76792 | 32877 ft | 502 kts | 21° |
| 2026-04-26 17:03 | 23.07861 | -12.73388 | 32874 ft | 502 kts | 21° |
| 2026-04-26 17:03 | 23.14108 | -12.69959 | 32875 ft | 503 kts | 21° |
| 2026-04-26 17:04 | 23.20362 | -12.66528 | 32882 ft | 504 kts | 21° |
| 2026-04-26 17:04 | 23.26625 | -12.63096 | 32915 ft | 504 kts | 22° |
| 2026-04-26 17:05 | 23.32882 | -12.59663 | 32915 ft | 503 kts | 22° |
| 2026-04-26 17:05 | 23.39121 | -12.56231 | 32911 ft | 502 kts | 22° |
| 2026-04-26 17:06 | 23.45323 | -12.52816 | 32908 ft | 502 kts | 22° |
| 2026-04-26 17:06 | 23.51554 | -12.49382 | 32906 ft | 501 kts | 22° |
| 2026-04-26 17:07 | 23.57782 | -12.45940 | 32934 ft | 501 kts | 22° |
| 2026-04-26 17:07 | 23.64011 | -12.42513 | 32913 ft | 500 kts | 22° |
| 2026-04-26 17:08 | 23.70226 | -12.39116 | 32899 ft | 499 kts | 22° |
| 2026-04-26 17:08 | 23.76441 | -12.35718 | 32895 ft | 500 kts | 22° |
| 2026-04-26 17:09 | 23.80557 | -12.33460 | 32894 ft | 500 kts | 22° |
| 2026-04-26 17:09 | 23.88826 | -12.28917 | 32890 ft | 500 kts | 22° |
| 2026-04-26 17:10 | 23.95041 | -12.25496 | 32911 ft | 500 kts | 23° |
| 2026-04-26 17:10 | 24.01249 | -12.22071 | 32911 ft | 500 kts | 23° |
| 2026-04-26 17:11 | 24.04368 | -12.20351 | 33065 ft | 502 kts | 23° |
| 2026-04-26 17:11 | 24.07490 | -12.18631 | 33313 ft | 503 kts | 23° |
| 2026-04-26 17:11 | 24.10624 | -12.16902 | 33563 ft | 503 kts | 23° |
| 2026-04-26 17:11 | 24.13747 | -12.15180 | 33821 ft | 503 kts | 22° |
| 2026-04-26 17:12 | 24.18937 | -12.12314 | 34181 ft | 503 kts | 23° |
| 2026-04-26 17:12 | 24.22062 | -12.10582 | 34380 ft | 503 kts | 22° |
| 2026-04-26 17:13 | 24.29326 | -12.06552 | 34825 ft | 504 kts | 22° |
| 2026-04-26 17:13 | 24.32463 | -12.04813 | 34882 ft | 505 kts | 22° |
| 2026-04-26 17:14 | 24.40866 | -12.00168 | 34884 ft | 506 kts | 22° |
| 2026-04-26 17:14 | 24.50302 | -11.94925 | 34885 ft | 507 kts | 22° |
| 2026-04-26 17:15 | 24.59722 | -11.89677 | 34883 ft | 505 kts | 23° |
| 2026-04-26 17:16 | 24.65956 | -11.86206 | 34892 ft | 505 kts | 23° |
| 2026-04-26 17:16 | 24.72227 | -11.82713 | 34889 ft | 505 kts | 23° |
| 2026-04-26 17:17 | 24.78506 | -11.79207 | 34902 ft | 505 kts | 23° |
| 2026-04-26 17:17 | 24.84777 | -11.75704 | 34898 ft | 505 kts | 23° |
| 2026-04-26 17:18 | 24.91043 | -11.72190 | 34908 ft | 505 kts | 23° |
| 2026-04-26 17:18 | 24.97310 | -11.68668 | 34909 ft | 505 kts | 23° |
| 2026-04-26 17:19 | 25.06700 | -11.63411 | 34910 ft | 504 kts | 23° |
| 2026-04-26 17:19 | 25.12923 | -11.59919 | 34907 ft | 504 kts | 23° |
| 2026-04-26 17:20 | 25.18163 | -11.56965 | 34902 ft | 504 kts | 23° |
| 2026-04-26 17:20 | 25.25582 | -11.53351 | 34918 ft | 499 kts | 17° |
| 2026-04-26 17:21 | 25.32089 | -11.50665 | 34918 ft | 498 kts | 16° |
| 2026-04-26 17:21 | 25.38585 | -11.47994 | 34913 ft | 498 kts | 16° |
| 2026-04-26 17:22 | 25.45079 | -11.45316 | 34912 ft | 498 kts | 16° |
| 2026-04-26 17:22 | 25.51573 | -11.42651 | 34925 ft | 497 kts | 17° |
| 2026-04-26 17:23 | 25.58061 | -11.39966 | 34923 ft | 497 kts | 17° |
| 2026-04-26 17:23 | 25.64497 | -11.37288 | 34915 ft | 497 kts | 17° |
| 2026-04-26 17:24 | 25.71006 | -11.34579 | 34910 ft | 496 kts | 17° |
| 2026-04-26 17:24 | 25.77437 | -11.31903 | 34908 ft | 496 kts | 17° |
| 2026-04-26 17:25 | 25.83903 | -11.29208 | 34907 ft | 497 kts | 17° |
| 2026-04-26 17:25 | 25.90376 | -11.26504 | 34906 ft | 497 kts | 17° |
| 2026-04-26 17:26 | 25.96856 | -11.23796 | 34907 ft | 497 kts | 17° |
| 2026-04-26 17:26 | 26.03342 | -11.21081 | 34907 ft | 498 kts | 17° |
| 2026-04-26 17:27 | 26.09822 | -11.18377 | 34909 ft | 498 kts | 17° |
| 2026-04-26 17:27 | 26.16309 | -11.15667 | 34921 ft | 497 kts | 17° |
| 2026-04-26 17:28 | 26.22789 | -11.12940 | 34913 ft | 497 kts | 17° |
| 2026-04-26 17:28 | 26.29258 | -11.10212 | 34910 ft | 497 kts | 17° |
| 2026-04-26 17:29 | 26.34643 | -11.07945 | 34909 ft | 497 kts | 17° |
| 2026-04-26 17:29 | 26.42211 | -11.04760 | 34911 ft | 497 kts | 17° |
| 2026-04-26 17:30 | 26.48690 | -11.02036 | 34920 ft | 497 kts | 17° |
| 2026-04-26 17:30 | 26.55162 | -10.99304 | 34914 ft | 497 kts | 18° |
| 2026-04-26 17:31 | 26.61625 | -10.96562 | 34911 ft | 497 kts | 18° |
| 2026-04-26 17:31 | 26.68046 | -10.93840 | 34895 ft | 496 kts | 17° |
| 2026-04-26 17:32 | 26.74516 | -10.91105 | 34898 ft | 496 kts | 17° |
| 2026-04-26 17:32 | 26.80981 | -10.88364 | 34911 ft | 496 kts | 18° |